Wetterdaten für den Flughafen Lübeck Blankensee


ADDS - METARS form results Aviation Digital Data Service (ADDS) Output produced by METARs form (2025 UTC 19 May 2019)
found at http://www.aviationweather.gov/metar/data/
 
EDHL 191850Z 03005KT 9000 FEW004 13/12 Q1006
TAF EDHL 191700Z 1918/1921 04008KT CAVOK BECMG 1918/1921 2000 BCFG OVC002

Nord: Hamburg, Lübeck
Ost: Schwerin, Rostock
Süd: Hannover
West: Bremen, Nordhloz

 

Copyright © 2016 Flugschule Hohensee